CheckWX is a tool to help pilots better visualize weather data.  It is not intended as a substitute for an official pre-flight weather briefing.

04:52:28 UTC

KMCF TAF
Macdill AFB Airport
Tampa, Florida, USA
TAF KMCF 280100Z 2801/2907 31015KT 9999 SKC QNH3021INS TX14/2820Z TN09/2811Z

Feb-28@
01:00 UTC

Feb-28 @ 01:00 UTC

Feb-29@
07:00 UTC

Feb-29 @ 07:00 UTC

TAF KMCF 280100Z 2801/2907 31015KT 9999 SKC QNH3021INS TX14/2820Z TN09/2811Z
Wind
  • 310° at 15 KTS
Cloud Levels
  • Clear skies